M I D A S
Marine Information and Data Acquisition System
Tripno 278 of the Zeeleeuw from 2002-05-17 07:00:00 to 2002-05-17 15:25:00
Back to CruiseResearch ActivitiesStationsMapUnderway DataData graphs

EquipmentUnitsComment
TimeDGPSUTC
LatitudeDGPSDM.mWGS84
LongitudeDGPSDM.mWGS84
TemperatureSBE03/SBE38deg celciusITS90
ConductivitySBE21S/mITS90
SalinitySBE21 Practical Salinity Units
ChlorophylAChelsea fluorimeterg/lCalibrated in Aceton
Missing or incorrect values are displayed as -999
Sea surface data collected by the RV Zeeleeuw from 2002-05-17 07:00:00 to 2002-05-17 15:25:00
                                                                                    Next 1000 lines
Time Latitude Longitude Temperature Conductivity Salinity ChlorophylA
2002-05-17 07:00:08 51°13.673 2°55.873 20.489281 3.29951 26.994123  
2002-05-17 07:00:13 51°13.676 2°55.866 21.818218 3.287892 26.880352  
2002-05-17 07:00:18 51°13.68 2°55.857 20.595449 3.28629 26.863703  
2002-05-17 07:00:22 51°13.683 2°55.851 20.595449 3.28629 26.863703  
2002-05-17 07:00:28 51°13.688 2°55.84 19.578585 3.291297 26.909531  
2002-05-17 07:00:33 51°13.692 2°55.831 19.539902 3.297106 26.965868  
2002-05-17 07:00:37 51°13.696 2°55.823 21.352224 3.304017 27.031666  
2002-05-17 07:00:43 51°13.701 2°55.811 20.809988 3.312931 27.119997  
2002-05-17 07:00:48 51°13.705 2°55.802 21.432924 3.317238 27.162287  
2002-05-17 07:00:53 51°13.71 2°55.792 21.432924 3.317238 27.162287  
2002-05-17 07:00:57 51°13.713 2°55.784 20.649475 3.31854 27.177361  
2002-05-17 07:01:03 51°13.719 2°55.771 20.51885 3.315435 27.149769  
2002-05-17 07:01:07 51°13.723 2°55.763 21.232315 3.310628 27.101308  
2002-05-17 07:01:13 51°13.729 2°55.751 19.575491 3.307423 27.068472  
2002-05-17 07:01:18 51°13.734 2°55.74 19.484731 3.306121 27.056682  
2002-05-17 07:01:23 51°13.74 2°55.73 19.484731 3.306121 27.056682  
2002-05-17 07:01:28 51°13.746 2°55.721 21.752877 3.307122 27.065208  
2002-05-17 07:01:32 51°13.751 2°55.713 20.305197 3.316236 27.15212  
2002-05-17 07:01:37 51°13.757 2°55.704 21.473042 3.324249 27.231296  
2002-05-17 07:01:43 51°13.765 2°55.694 20.286097 3.330459 27.293635  
2002-05-17 07:01:48 51°13.772 2°55.686 20.009295 3.338272 27.370561  
2002-05-17 07:01:52 51°13.778 2°55.68 20.009295 3.338272 27.370561  
2002-05-17 07:01:57 51°13.785 2°55.672 21.220225 3.348388 27.471781  
2002-05-17 07:02:02 51°13.792 2°55.665 20.416348 3.358204 27.568164  
2002-05-17 07:02:08 51°13.801 2°55.657 21.749877 3.368121 27.665548  
2002-05-17 07:02:13 51°13.809 2°55.65 21.271592 3.381343 27.79423  
2002-05-17 07:02:18 51°13.817 2°55.644 20.344106 3.387053 27.850698  
2002-05-17 07:02:22 51°13.823 2°55.638 20.344106 3.387053 27.850698  
2002-05-17 07:02:28 51°13.832 2°55.631 19.895269 3.381543 27.795494  
2002-05-17 07:02:33 51°13.84 2°55.624 21.47427 3.364114 27.618549  
2002-05-17 07:02:38 51°13.848 2°55.617 20.96411 3.340175 27.379575  
2002-05-17 07:02:42 51°13.854 2°55.612 21.463173 3.32465 27.217975  
2002-05-17 07:02:47 51°13.862 2°55.605 20.51636 3.316036 27.127964  
2002-05-17 07:02:53 51°13.871 2°55.598 20.51636 3.316036 27.127964  
2002-05-17 07:02:57 51°13.877 2°55.592 21.104674 3.311428 27.07648  
2002-05-17 07:03:03 51°13.887 2°55.584 21.943248 3.307222 27.03029  
2002-05-17 07:03:08 51°13.895 2°55.578 21.556098 3.304618 27.000787  
2002-05-17 07:03:13 51°13.903 2°55.572 20.365927 3.305719 27.007498  
2002-05-17 07:03:18 51°13.911 2°55.566 20.365927 3.305719 27.007498  
2002-05-17 07:03:23 51°13.919 2°55.56 19.99404 3.309325 27.040094  
2002-05-17 07:03:28 51°13.927 2°55.554 21.718841 3.315134 27.094794  
2002-05-17 07:03:33 51°13.935 2°55.548 20.661943 3.322446 27.163108  
2002-05-17 07:03:38 51°13.943 2°55.541 20.486026 3.332962 27.264295  
2002-05-17 07:03:43 51°13.951 2°55.535 22.171268 3.342277 27.354683  
2002-05-17 07:03:48 51°13.959 2°55.529 21.158194 3.351793 27.446964  
2002-05-17 07:03:52 51°13.965 2°55.524 21.158194 3.351793 27.446964  
2002-05-17 07:03:58 51°13.975 2°55.517 20.567517 3.365916 27.58389  
2002-05-17 07:04:03 51°13.983 2°55.511 21.362188 3.378537 27.710681  
2002-05-17 07:04:08 51°13.992 2°55.505 21.440934 3.388354 27.806563  
2002-05-17 07:04:12 51°13.998 2°55.5 20.771495 3.394064 27.863503  
2002-05-17 07:04:18 51°14.008 2°55.493 19.807884 3.400575 27.92496  
2002-05-17 07:04:23 51°14.016 2°55.487 19.807884 3.400575 27.92496  
2002-05-17 07:04:27 51°14.023 2°55.482 21.372825 3.408989 28.006015  
2002-05-17 07:04:33 51°14.033 2°55.475 21.006688 3.417504 28.089732  
2002-05-17 07:04:38 51°14.041 2°55.469 20.221022 3.427722 28.188467  
2002-05-17 07:04:43 51°14.05 2°55.463 21.165995 3.435836 28.271517  
2002-05-17 07:04:48 51°14.058 2°55.457 20.471356 3.442247 28.336257  
2002-05-17 07:04:53 51°14.067 2°55.451 20.471356 3.442247 28.336257  
2002-05-17 07:04:58 51°14.075 2°55.445 20.302135 3.448258 28.396815  
2002-05-17 07:05:03 51°14.083 2°55.439 21.874357 3.452365 28.439459  
2002-05-17 07:05:08 51°14.091 2°55.433 20.436459 3.457575 28.491617  
2002-05-17 07:05:12 51°14.098 2°55.428 21.677677 3.46028 28.518622  
2002-05-17 07:05:17 51°14.106 2°55.422 20.443214 3.464687 28.562923  
2002-05-17 07:05:23 51°14.116 2°55.415 20.443214 3.464687 28.562923  
2002-05-17 07:05:28 51°14.124 2°55.408 21.362704 3.467292 28.588456  
2002-05-17 07:05:32 51°14.131 2°55.403 20.183337 3.469797 28.611926  
2002-05-17 07:05:37 51°14.139 2°55.397 20.347005 3.468394 28.5968  
2002-05-17 07:05:41 51°14.146 2°55.392 22.199597 3.466691 28.577779  
2002-05-17 07:05:48 51°14.157 2°55.382 21.54054 3.46599 28.571371  
2002-05-17 07:05:53 51°14.166 2°55.376 21.54054 3.46599 28.571371  
2002-05-17 07:05:57 51°14.172 2°55.37 20.965068 3.467292 28.582696  
2002-05-17 07:06:03 51°14.182 2°55.362 21.248776 3.469095 28.600904  
2002-05-17 07:06:08 51°14.19 2°55.355 20.560693 3.470698 28.614978  
2002-05-17 07:06:12 51°14.196 2°55.349 20.856856 3.473303 28.639941  
2002-05-17 07:06:18 51°14.206 2°55.34 20.856856 3.473303 28.639941  
2002-05-17 07:06:22 51°14.212 2°55.334 21.11511 3.477911 28.684962  
2002-05-17 07:06:28 51°14.221 2°55.324 20.116753 3.481618 28.721175  
2002-05-17 07:06:33 51°14.228 2°55.315 21.503986 3.486126 28.765312  
2002-05-17 07:06:38 51°14.235 2°55.305 21.152541 3.490434 28.80589  
2002-05-17 07:06:43 51°14.241 2°55.296 20.721607 3.493941 28.842051  
2002-05-17 07:06:48 51°14.248 2°55.286 21.796168 3.496946 28.871893  
2002-05-17 07:06:53 51°14.255 2°55.275 21.796168 3.496946 28.871893  
2002-05-17 07:06:58 51°14.261 2°55.265 20.629105 3.497848 28.880149  
2002-05-17 07:07:03 51°14.268 2°55.255 19.968986 3.498148 28.881154  
2002-05-17 07:07:08 51°14.274 2°55.245 20.730058 3.498048 28.880819  
2002-05-17 07:07:13 51°14.28 2°55.234 20.146762 3.497647 28.876568  
2002-05-17 07:07:18 51°14.286 2°55.223 21.351708 3.496345 28.862898  
2002-05-17 07:07:23 51°14.292 2°55.212 21.351708 3.496345 28.862898  
2002-05-17 07:07:28 51°14.298 2°55.201 19.998127 3.495544 28.854398  
2002-05-17 07:07:33 51°14.304 2°55.189 19.682679 3.495644 28.85357  
2002-05-17 07:07:38 51°14.31 2°55.177 22.023164 3.496545 28.860077  
2002-05-17 07:07:43 51°14.315 2°55.165 21.220623 3.498449 28.877501  
2002-05-17 07:07:48 51°14.32 2°55.153 19.878571 3.500753 28.900342  
2002-05-17 07:07:52 51°14.325 2°55.144 19.878571 3.500753 28.900342  
2002-05-17 07:07:58 51°14.331 2°55.13 20.449608 3.503258 28.923857  
2002-05-17 07:08:03 51°14.337 2°55.118 20.031746 3.504961 28.940619  
2002-05-17 07:08:08 51°14.343 2°55.106 20.662465 3.503558 28.927192  
2002-05-17 07:08:13 51°14.348 2°55.094 22.124513 3.496846 28.858757  
2002-05-17 07:08:18 51°14.353 2°55.082 20.363874 3.489733 28.785547  
2002-05-17 07:08:23 51°14.359 2°55.07 20.363874 3.489733 28.785547  
2002-05-17 07:08:28 51°14.364 2°55.058 20.059972 3.484523 28.733273  
2002-05-17 07:08:33 51°14.37 2°55.046 20.622848 3.481317 28.700496  
2002-05-17 07:08:37 51°14.374 2°55.035 21.72828 3.480916 28.691633  
2002-05-17 07:08:43 51°14.382 2°55.019 21.07196 3.482218 28.684477  
2002-05-17 07:08:48 51°14.389 2°55.005 21.522087 3.48322 28.686124  
2002-05-17 07:08:53 51°14.396 2°54.989 21.522087 3.48322 28.686124  
2002-05-17 07:08:58 51°14.405 2°54.972 21.061956 3.485124 28.698887  
2002-05-17 07:09:03 51°14.414 2°54.956 21.256488 3.488029 28.708096  
2002-05-17 07:09:08 51°14.423 2°54.939 20.362747 3.493839 28.726495  
2002-05-17 07:09:12 51°14.431 2°54.924 21.464639 3.498748 28.760289  
2002-05-17 07:09:17 51°14.442 2°54.906 20.826467 3.501152 28.779899  
2002-05-17 07:09:23 51°14.454 2°54.883 20.826467 3.501152 28.779899  
2002-05-17 07:09:28 51°14.465 2°54.864 22.449715 3.507163 28.837014  
2002-05-17 07:09:33 51°14.475 2°54.844 20.514311 3.513074 28.894399  
2002-05-17 07:09:38 51°14.486 2°54.824 21.160741 3.518685 28.94907  
2002-05-17 07:09:43 51°14.497 2°54.804 21.283077 3.525097 29.009919  
2002-05-17 07:09:47 51°14.506 2°54.787 21.283077 3.525097 29.009919  
2002-05-17 07:09:52 51°14.517 2°54.767 21.216725 3.53211 29.079785  
2002-05-17 07:09:58 51°14.53 2°54.742 21.285739 3.542229 29.1816  
2002-05-17 07:10:03 51°14.542 2°54.722 22.042745 3.554753 29.303752  
2002-05-17 07:10:08 51°14.554 2°54.703 21.476965 3.565775 29.413456  
2002-05-17 07:10:12 51°14.564 2°54.689 21.149675 3.5789 29.541365  
2002-05-17 07:10:18 51°14.58 2°54.668 21.149675 3.5789 29.541365  
2002-05-17 07:10:23 51°14.593 2°54.652 20.61976 3.592326 29.672169  
2002-05-17 07:10:28 51°14.607 2°54.637 20.106572 3.60405 29.783288  
2002-05-17 07:10:32 51°14.618 2°54.625 20.592761 3.616474 29.900327  
2002-05-17 07:10:38 51°14.635 2°54.608 20.737626 3.632807 30.056986  
2002-05-17 07:10:43 51°14.649 2°54.594 20.549171 3.639621 30.127494  
2002-05-17 07:10:48 51°14.664 2°54.581 20.824547 3.656556 30.293016  
2002-05-17 07:10:52 51°14.676 2°54.57 20.824547 3.656556 30.293016  
2002-05-17 07:10:58 51°14.693 2°54.555 19.955949 3.669783 30.424603  
2002-05-17 07:11:02 51°14.705 2°54.545 19.657189 3.68281 30.55265  
2002-05-17 07:11:08 51°14.723 2°54.53 21.300558 3.694435 30.672218  
2002-05-17 07:11:13 51°14.737 2°54.518 19.924401 3.70145 30.746884  
2002-05-17 07:11:18 51°14.752 2°54.505 19.479309 3.708264 30.819144  
2002-05-17 07:11:23 51°14.767 2°54.493 19.479309 3.708264 30.819144  
2002-05-17 07:11:27 51°14.778 2°54.483 20.771255 3.713576 30.875078  
2002-05-17 07:11:33 51°14.796 2°54.467 20.875682 3.716983 30.91032  
2002-05-17 07:11:37 51°14.808 2°54.456 20.013907 3.72029 30.945899  
2002-05-17 07:11:43 51°14.825 2°54.44 20.341206 3.722094 30.966961  
2002-05-17 07:11:48 51°14.839 2°54.426 20.141633 3.724699 30.994197  
2002-05-17 07:11:53 51°14.853 2°54.413 20.141633 3.724699 30.994197  
2002-05-17 07:11:58 51°14.868 2°54.399 21.191464 3.727205 31.020514  
2002-05-17 07:12:03 51°14.882 2°54.385 20.033445 3.728808 31.036608  
2002-05-17 07:12:08 51°14.897 2°54.372 20.63115 3.730311 31.049894  
2002-05-17 07:12:12 51°14.908 2°54.362 20.887031 3.732115 31.069103  
2002-05-17 07:12:17 51°14.923 2°54.348 20.431954 3.733518 31.083348  
2002-05-17 07:12:23 51°14.94 2°54.333 20.431954 3.733518 31.083348  
2002-05-17 07:12:28 51°14.955 2°54.32 20.332105 3.73402 31.089244  
2002-05-17 07:12:32 51°14.966 2°54.309 20.292263 3.73442 31.094841  
2002-05-17 07:12:38 51°14.983 2°54.294 20.291658 3.735122 31.103223  
2002-05-17 07:12:43 51°14.998 2°54.281 20.291255 3.735322 31.106966  
2002-05-17 07:12:47 51°15.009 2°54.271 20.483655 3.735423 31.11041  
2002-05-17 07:12:52 51°15.024 2°54.258 20.483655 3.735423 31.11041  
2002-05-17 07:12:58 51°15.041 2°54.242 21.006488 3.735623 31.111637  
2002-05-17 07:13:03 51°15.055 2°54.228 19.889352 3.735523 31.112596  
2002-05-17 07:13:08 51°15.069 2°54.215 21.204792 3.735423 31.112297  
2002-05-17 07:13:13 51°15.084 2°54.201 21.235893 3.735924 31.118826  
2002-05-17 07:13:18 51°15.098 2°54.188 20.347166 3.736625 31.128471  
2002-05-17 07:13:23 51°15.113 2°54.175 20.347166 3.736625 31.128471  
2002-05-17 07:13:28 51°15.127 2°54.161 20.052936 3.738229 31.145217  
2002-05-17 07:13:33 51°15.142 2°54.148 21.107781 3.739031 31.154536  
2002-05-17 07:13:37 51°15.154 2°54.137 21.17312 3.740133 31.165382  
2002-05-17 07:13:43 51°15.171 2°54.121 18.989964 3.741235 31.176229  
2002-05-17 07:13:48 51°15.186 2°54.107 19.95769 3.742638 31.189864  
2002-05-17 07:13:52 51°15.198 2°54.096 19.95769 3.742638 31.189864  
2002-05-17 07:13:58 51°15.216 2°54.078 20.026488 3.74324 31.196068  
2002-05-17 07:14:03 51°15.231 2°54.065 19.996711 3.743741 31.201975  
2002-05-17 07:14:08 51°15.246 2°54.051 20.761248 3.744142 31.203797  
2002-05-17 07:14:12 51°15.258 2°54.039 19.304083 3.745144 31.213087  
2002-05-17 07:14:18 51°15.276 2°54.022 19.866775 3.746747 31.227319  
2002-05-17 07:14:22 51°15.288 2°54.011 19.866775 3.746747 31.227319  
2002-05-17 07:14:28 51°15.306 2°53.994 20.309467 3.74815 31.239694  
2002-05-17 07:14:33 51°15.322 2°53.979 20.255381 3.749854 31.254224  
2002-05-17 07:14:38 51°15.337 2°53.965 19.651943 3.751157 31.264406  
2002-05-17 07:14:43 51°15.352 2°53.951 20.177404 3.752259 31.271463  
2002-05-17 07:14:48 51°15.367 2°53.936 20.639973 3.753261 31.277591  
2002-05-17 07:14:51 51°15.376 2°53.928 20.639973 3.753261 31.277591  
2002-05-17 07:14:57 51°15.394 2°53.911 20.369027 3.754363 31.284015  
2002-05-17 07:15:03 51°15.413 2°53.893 20.700737 3.756368 31.29943  
2002-05-17 07:15:08 51°15.428 2°53.879 21.516463 3.758272 31.31518  
2002-05-17 07:15:12 51°15.44 2°53.867 21.767876 3.760878 31.338066  
2002-05-17 07:15:18 51°15.459 2°53.85 21.054462 3.764185 31.369359  
2002-05-17 07:15:23 51°15.474 2°53.835 21.054462 3.764185 31.369359  
2002-05-17 07:15:28 51°15.489 2°53.82 21.558355 3.766991 31.396011  
2002-05-17 07:15:33 51°15.504 2°53.805 21.473834 3.769597 31.422078  
2002-05-17 07:15:37 51°15.516 2°53.793 20.500893 3.771701 31.44414  
2002-05-17 07:15:43 51°15.535 2°53.775 22.393361 3.773906 31.465864  
2002-05-17 07:15:48 51°15.55 2°53.76 21.237961 3.77551 31.481377  
2002-05-17 07:15:53 51°15.565 2°53.745 21.237961 3.77551 31.481377  
2002-05-17 07:15:58 51°15.581 2°53.731 21.042621 3.777614 31.502814  
2002-05-17 07:16:02 51°15.593 2°53.719 20.230823 3.779118 31.518676  
2002-05-17 07:16:08 51°15.611 2°53.701 21.500064 3.780821 31.53385  
2002-05-17 07:16:12 51°15.623 2°53.689 23.02142 3.782325 31.544612  
2002-05-17 07:16:17 51°15.639 2°53.673 21.46563 3.783327 31.548809  
2002-05-17 07:16:23 51°15.657 2°53.656 21.46563 3.783327 31.548809  
2002-05-17 07:16:28 51°15.673 2°53.641 21.752877 3.784028 31.549578  
2002-05-17 07:16:33 51°15.688 2°53.626 21.034726 3.78493 31.55412  
2002-05-17 07:16:37 51°15.701 2°53.614 20.612379 3.785732 31.557731  
2002-05-17 07:16:43 51°15.719 2°53.595 21.628264 3.786032 31.559882  
2002-05-17 07:16:48 51°15.734 2°53.58 22.042509 3.786534 31.565168  
2002-05-17 07:16:51 51°15.744 2°53.571 22.042509 3.786534 31.565168  
2002-05-17 07:16:58 51°15.765 2°53.549 21.000424 3.786634 31.568012  
2002-05-17 07:17:03 51°15.781 2°53.534 21.456633 3.786634 31.571202  
2002-05-17 07:17:08 51°15.796 2°53.519 20.924623 3.786033 31.568175  
2002-05-17 07:17:12 51°15.809 2°53.507 20.390237 3.786333 31.571603  
2002-05-17 07:17:18 51°15.828 2°53.489 21.265193 3.786133 31.569743  
2002-05-17 07:17:22 51°15.84 2°53.477 21.265193 3.786133 31.569743  
2002-05-17 07:17:28 51°15.858 2°53.459 19.837944 3.785632 31.565732  
2002-05-17 07:17:33 51°15.874 2°53.444 19.599302 3.78473 31.558001  
2002-05-17 07:17:37 51°15.886 2°53.432 20.154514 3.783928 31.552475  
2002-05-17 07:17:42 51°15.902 2°53.417 19.772412 3.782926 31.549554  
2002-05-17 07:17:48 51°15.921 2°53.399 19.772412 3.782926 31.549554  
2002-05-17 07:17:52 51°15.933 2°53.388 20.882356 3.781022 31.537624  
2002-05-17 07:17:58 51°15.952 2°53.37 21.098459 3.779118 31.528879  
2002-05-17 07:18:03 51°15.968 2°53.355 20.273401 3.777615 31.522577  
2002-05-17 07:18:08 51°15.983 2°53.339 20.210534 3.776312 31.518135  
2002-05-17 07:18:12 51°15.996 2°53.327 23.20919 3.774408 31.51002  
2002-05-17 07:18:18 51°16.014 2°53.308 22.397899 3.772604 31.503472  
2002-05-17 07:18:23 51°16.03 2°53.292 22.397899 3.772604 31.503472  
2002-05-17 07:18:28 51°16.045 2°53.276 23.247165 3.771101 31.499715  
2002-05-17 07:18:32 51°16.058 2°53.263 24.033021 3.769097 31.490022  
2002-05-17 07:18:38 51°16.076 2°53.244 23.841709 3.767593 31.483707  
2002-05-17 07:18:43 51°16.092 2°53.228 21.261139 3.766591 31.477581  
2002-05-17 07:18:47 51°16.104 2°53.215 22.09254 3.76579 31.473957  
2002-05-17 07:18:53 51°16.123 2°53.196 22.09254 3.76579 31.473957  
2002-05-17 07:18:58 51°16.139 2°53.181 21.06359 3.764787 31.467829  
2002-05-17 07:19:03 51°16.155 2°53.166 21.382468 3.764487 31.46631  
2002-05-17 07:19:08 51°16.17 2°53.15 23.394235 3.764086 31.46322  
2002-05-17 07:19:12 51°16.183 2°53.138 20.145873 3.763885 31.460718  
2002-05-17 07:19:18 51°16.202 2°53.119 22.339742 3.763885 31.458804  
2002-05-17 07:19:23 51°16.218 2°53.103 22.339742 3.763885 31.458804  
2002-05-17 07:19:28 51°16.234 2°53.087 20.447758 3.763986 31.459097  
2002-05-17 07:19:32 51°16.246 2°53.074 20.336293 3.764186 31.462876  
2002-05-17 07:19:37 51°16.262 2°53.058 21.209247 3.763886 31.462633  
2002-05-17 07:19:43 51°16.281 2°53.039 24.621366 3.763685 31.470346  
2002-05-17 07:19:47 51°16.294 2°53.027 20.319176 3.763585 31.477079  
2002-05-17 07:19:53 51°16.313 2°53.008 20.319176 3.763585 31.477079  
2002-05-17 07:19:58 51°16.329 2°52.992 23.697622 3.762884 31.480137  
2002-05-17 07:20:03 51°16.345 2°52.978 21.461786 3.762583 31.488849  
2002-05-17 07:20:08 51°16.362 2°52.964 19.922537 3.761982 31.492847  
2002-05-17 07:20:12 51°16.376 2°52.952 21.726661 3.761481 31.497783  
2002-05-17 07:20:18 51°16.396 2°52.936 22.914341 3.76108 31.500452  
2002-05-17 07:20:23 51°16.412 2°52.922 22.914341 3.76108 31.500452  
2002-05-17 07:20:28 51°16.429 2°52.91 21.982646 3.76098 31.50144  
2002-05-17 07:20:32 51°16.443 2°52.9 20.367376 3.76078 31.504057  
2002-05-17 07:20:37 51°16.46 2°52.888 22.103736 3.76078 31.505979  
2002-05-17 07:20:43 51°16.481 2°52.875 21.816049 3.76078 31.50662  
2002-05-17 07:20:47 51°16.495 2°52.866 22.770684 3.761381 31.511584  
2002-05-17 07:20:53 51°16.516 2°52.853 22.770684 3.761381 31.511584  
2002-05-17 07:20:58 51°16.533 2°52.843 20.507362 3.761682 31.513745  
2002-05-17 07:21:03 51°16.551 2°52.832 21.966197 3.762584 31.524717  
2002-05-17 07:21:08 51°16.568 2°52.822 22.886293 3.762784 31.529151  
2002-05-17 07:21:13 51°16.586 2°52.811 23.013663 3.763586 31.539833  
2002-05-17 07:21:18 51°16.603 2°52.8 21.660564 3.764087 31.547073  
2002-05-17 07:21:23 51°16.62 2°52.79 21.660564 3.764087 31.547073  
2002-05-17 07:21:28 51°16.638 2°52.779 21.074192 3.764789 31.554256  
2002-05-17 07:21:33 51°16.655 2°52.768 22.322239 3.765691 31.565879  
2002-05-17 07:21:38 51°16.673 2°52.757 22.574349 3.766192 31.574408  
2002-05-17 07:21:43 51°16.69 2°52.746 22.758463 3.766893 31.584167  
2002-05-17 07:21:48 51°16.708 2°52.735 24.24839 3.767194 31.591473  
2002-05-17 07:21:53 51°16.725 2°52.724 24.24839 3.767194 31.591473  
2002-05-17 07:21:57 51°16.74 2°52.716 20.071089 3.767996 31.602171  
2002-05-17 07:22:03 51°16.761 2°52.703 21.57569 3.768698 31.613868  
2002-05-17 07:22:08 51°16.778 2°52.693 21.023281 3.769099 31.622762  
2002-05-17 07:22:13 51°16.795 2°52.682 20.895622 3.7698 31.635756  
2002-05-17 07:22:18 51°16.813 2°52.673 22.694365 3.770001 31.642141  
2002-05-17 07:22:23 51°16.831 2°52.664 22.694365 3.770001 31.642141  
2002-05-17 07:22:28 51°16.849 2°52.656 20.814628 3.770201 31.644657  
2002-05-17 07:22:32 51°16.863 2°52.649 21.986306 3.770502 31.64682  
2002-05-17 07:22:38 51°16.884 2°52.64 22.04821 3.771203 31.652727  
2002-05-17 07:22:43 51°16.902 2°52.633 20.14975 3.772005 31.65957  
2002-05-17 07:22:48 51°16.92 2°52.626 23.155829 3.772907 31.669285  
2002-05-17 07:22:53 51°16.938 2°52.618 23.155829 3.772907 31.669285  
2002-05-17 07:22:58 51°16.956 2°52.61 19.677842 3.77411 31.6831  
2002-05-17 07:23:02 51°16.97 2°52.604 20.76453 3.775813 31.700954  
2002-05-17 07:23:08 51°16.992 2°52.594 22.184375 3.776916 31.71384  
2002-05-17 07:23:13 51°17.01 2°52.586 22.499891 3.778119 31.728958  
2002-05-17 07:23:18 51°17.028 2°52.577 19.788446 3.779622 31.747538  
2002-05-17 07:23:23 51°17.045 2°52.569 19.788446 3.779622 31.747538  
2002-05-17 07:23:28 51°17.063 2°52.56 23.384242 3.781025 31.763245  
2002-05-17 07:23:33 51°17.081 2°52.553 21.891931 3.781927 31.776862  
2002-05-17 07:23:38 51°17.099 2°52.546 20.614786 3.782929 31.790772  
2002-05-17 07:23:43 51°17.117 2°52.541 20.449447 3.783932 31.804687  
2002-05-17 07:23:48 51°17.136 2°52.536 22.556396 3.784934 31.818607  
2002-05-17 07:23:53 51°17.154 2°52.533 22.556396 3.784934 31.818607  
2002-05-17 07:23:59 51°17.176 2°52.529 19.240464 3.785736 31.830006  
2002-05-17 07:24:04 51°17.195 2°52.527 21.821491 3.786437 31.83787  
2002-05-17 07:24:08 51°17.209 2°52.524 22.29106 3.787039 31.846098  
2002-05-17 07:24:13 51°17.228 2°52.521 20.866529 3.78774 31.851363  
2002-05-17 07:24:18 51°17.246 2°52.518 21.774269 3.788241 31.856053  
2002-05-17 07:24:23 51°17.265 2°52.516 21.774269 3.788241 31.856053  
2002-05-17 07:24:28 51°17.284 2°52.513 21.508344 3.788743 31.861393  
2002-05-17 07:24:33 51°17.302 2°52.511 22.959847 3.790045 31.873588  
2002-05-17 07:24:37 51°17.317 2°52.508 19.94125 3.790547 31.878929  
2002-05-17 07:24:42 51°17.336 2°52.506 19.885016 3.791248 31.891356  
2002-05-17 07:24:48 51°17.358 2°52.502 22.047895 3.79225 31.903345  
2002-05-17 07:24:53 51°17.376 2°52.499 22.047895 3.79225 31.903345  
2002-05-17 07:24:58 51°17.395 2°52.496 20.486629 3.793052 31.912156  
2002-05-17 07:25:03 51°17.414 2°52.493 20.225499 3.793553 31.920759  
2002-05-17 07:25:08 51°17.432 2°52.49 21.342577 3.794055 31.926105  
2002-05-17 07:25:12 51°17.447 2°52.487 21.115907 3.793854 31.922271  
2002-05-17 07:25:17 51°17.466 2°52.484 21.115907 3.793854 31.922271  
2002-05-17 07:25:23 51°17.488 2°52.48 19.797334 3.793553 31.914893  
2002-05-17 07:25:28 51°17.506 2°52.477 22.219523 3.793353 31.909758  
2002-05-17 07:25:32 51°17.522 2°52.475 23.108666 3.793353 31.905849  
2002-05-17 07:25:37 51°17.54 2°52.471 21.99504 3.793553 31.905772  
2002-05-17 07:25:43 51°17.562 2°52.467 21.843967 3.793754 31.906345  
2002-05-17 07:25:48 51°17.581 2°52.464 22.643311 3.793854 31.90533  
2002-05-17 07:25:52 51°17.596 2°52.461 22.643311 3.793854 31.90533  
2002-05-17 07:25:58 51°17.618 2°52.457 20.009982 3.794355 31.908718  
2002-05-17 07:26:03 51°17.637 2°52.453 20.852498 3.794856 31.912106  
2002-05-17 07:26:07 51°17.651 2°52.45 21.052229 3.795758 31.918594  
2002-05-17 07:26:12 51°17.67 2°52.448 21.869746 3.796459 31.923858  
2002-05-17 07:26:18 51°17.691 2°52.447 23.712835 3.797462 31.92998  
2002-05-17 07:26:23 51°17.71 2°52.447 23.712835 3.797462 31.92998  
2002-05-17 07:26:28 51°17.728 2°52.448 19.729002 3.798865 31.941809  
2002-05-17 07:26:33 51°17.746 2°52.449 21.82295 3.800168 31.954003  
2002-05-17 07:26:37 51°17.761 2°52.45 20.485986 3.801571 31.967788  
2002-05-17 07:26:43 51°17.782 2°52.452 21.101088 3.802373 31.975294  
2002-05-17 07:26:48 51°17.8 2°52.455 19.712833 3.803074 31.983819  
2002-05-17 07:26:53 51°17.818 2°52.458 19.712833 3.803074 31.983819  
2002-05-17 07:26:58 51°17.836 2°52.464 20.007231 3.803876 31.994589  
2002-05-17 07:27:02 51°17.85 2°52.469 20.404078 3.804277 32.000302  
2002-05-17 07:27:08 51°17.871 2°52.479 20.425318 3.804878 32.007893  
2002-05-17 07:27:12 51°17.884 2°52.485 20.650438 3.804878 32.012467  
2002-05-17 07:27:17 51°17.901 2°52.494 21.101965 3.803776 32.006062  
2002-05-17 07:27:22 51°17.918 2°52.503 21.101965 3.803776 32.006062  
2002-05-17 07:27:28 51°17.938 2°52.515 20.563101 3.802373 31.996187  
2002-05-17 07:27:33 51°17.955 2°52.524 20.946785 3.800268 31.979738  
2002-05-17 07:27:37 51°17.969 2°52.533 20.216181 3.797562 31.958308  
2002-05-17 07:27:42 51°17.985 2°52.543 21.375047 3.794756 31.93659  
2002-05-17 07:27:48 51°18.005 2°52.556 23.505343 3.792251 31.917684  
2002-05-17 07:27:53 51°18.021 2°52.569 23.505343 3.792251 31.917684  
2002-05-17 07:27:58 51°18.036 2°52.583 21.282918 3.789946 31.905218  
2002-05-17 07:28:03 51°18.051 2°52.598 20.956246 3.78754 31.890503  
2002-05-17 07:28:08 51°18.066 2°52.615 20.535237 3.785035 31.875497  
2002-05-17 07:28:12 51°18.077 2°52.629 21.380682 3.783331 31.866045  
2002-05-17 07:28:18 51°18.092 2°52.652 19.697108 3.781227 31.854788  
2002-05-17 07:28:23 51°18.105 2°52.672 19.697108 3.781227 31.854788  
2002-05-17 07:28:28 51°18.116 2°52.693 19.599465 3.779323 31.840845  
2002-05-17 07:28:33 51°18.126 2°52.716 20.096551 3.777419 31.826248  
2002-05-17 07:28:38 51°18.136 2°52.739 20.91991 3.775514 31.810999  
2002-05-17 07:28:43 51°18.146 2°52.762 20.3255 3.774111 31.796542  
2002-05-17 07:28:47 51°18.153 2°52.781 20.872325 3.771907 31.780425  
2002-05-17 07:28:53 51°18.164 2°52.809 20.872325 3.771907 31.780425  
2002-05-17 07:28:58 51°18.173 2°52.833 22.43564 3.769401 31.758886  
2002-05-17 07:29:03 51°18.182 2°52.857 21.136456 3.767898 31.746742  
2002-05-17 07:29:08 51°18.191 2°52.881 21.367903 3.766194 31.731419  
2002-05-17 07:29:13 51°18.2 2°52.905 21.494795 3.76429 31.714218  
2002-05-17 07:29:18 51°18.208 2°52.929 22.237012 3.763087 31.706839  
2002-05-17 07:29:23 51°18.217 2°52.953 22.237012 3.763087 31.706839  
2002-05-17 07:29:27 51°18.225 2°52.972 19.356415 3.761484 31.693104  
2002-05-17 07:29:32 51°18.234 2°52.996 21.789185 3.760181 31.683486  
2002-05-17 07:29:37 51°18.243 2°53.019 21.983787 3.759179 31.676036  
2002-05-17 07:29:43 51°18.254 2°53.048 20.915317 3.757976 31.666707  
2002-05-17 07:29:48 51°18.263 2°53.073 21.764521 3.756774 31.656729  
2002-05-17 07:29:52 51°18.269 2°53.093 21.764521 3.756774 31.656729  
2002-05-17 07:29:57 51°18.276 2°53.118 19.4307 3.756473 31.653911  
2002-05-17 07:30:02 51°18.283 2°53.143 22.440254 3.756173 31.649796  
2002-05-17 07:30:07 51°18.29 2°53.169 22.510282 3.755371 31.641632  
2002-05-17 07:30:13 51°18.298 2°53.199 21.470069 3.75487 31.636934  
2002-05-17 07:30:17 51°18.304 2°53.218 21.69522 3.754369 31.630294  
2002-05-17 07:30:23 51°18.312 2°53.248 21.69522 3.754369 31.630294  
2002-05-17 07:30:28 51°18.32 2°53.273 20.846541 3.754268 31.626117  
2002-05-17 07:30:33 51°18.328 2°53.298 21.789619 3.754168 31.622587  
2002-05-17 07:30:38 51°18.336 2°53.322 20.032191 3.753667 31.617244  
2002-05-17 07:30:43 51°18.344 2°53.347 21.484454 3.752765 31.609439  
2002-05-17 07:30:48 51°18.352 2°53.372 21.1611 3.752164 31.605746  
2002-05-17 07:30:53 51°18.36 2°53.396 21.1611 3.752164 31.605746  
2002-05-17 07:30:58 51°18.368 2°53.421 21.202644 3.751863 31.605517  
2002-05-17 07:31:03 51°18.376 2°53.446 19.124648 3.751462 31.603055  
2002-05-17 07:31:08 51°18.384 2°53.471 22.686027 3.750961 31.597064  
2002-05-17 07:31:12 51°18.39 2°53.491 19.891703 3.751162 31.596355  
2002-05-17 07:31:18 51°18.399 2°53.521 21.684236 3.751262 31.594059  
2002-05-17 07:31:23 51°18.407 2°53.546 21.684236 3.751262 31.594059  
2002-05-17 07:31:28 51°18.415 2°53.57 19.424376 3.751462 31.590764  
2002-05-17 07:31:33 51°18.422 2°53.595 20.452342 3.751763 31.586469  
2002-05-17 07:31:38 51°18.431 2°53.619 20.093278 3.752063 31.585407  
2002-05-17 07:31:43 51°18.439 2°53.644 21.177219 3.752063 31.583468  
2002-05-17 07:31:48 51°18.447 2°53.668 20.922466 3.752063 31.582176  
2002-05-17 07:31:51 51°18.452 2°53.683 20.922466 3.752063 31.582176  
2002-05-17 07:31:58 51°18.463 2°53.718 21.314581 3.752264 31.584053  
2002-05-17 07:32:03 51°18.471 2°53.742 21.174712 3.752063 31.582176  
2002-05-17 07:32:08 51°18.479 2°53.767 16.914849 3.751963 31.580591  
2002-05-17 07:32:13 51°18.487 2°53.792 21.630992 3.751763 31.576776  
2002-05-17 07:32:17 51°18.494 2°53.811 21.630992 3.751763 31.576776  
2002-05-17 07:32:23 51°18.503 2°53.841 19.31148 3.751462 31.570732  
2002-05-17 07:32:28 51°18.512 2°53.865 20.776298 3.750961 31.560877  
2002-05-17 07:32:33 51°18.52 2°53.889 21.339599 3.750459 31.549735  
2002-05-17 07:32:38 51°18.528 2°53.913 19.602843 3.750259 31.542055  
2002-05-17 07:32:43 51°18.537 2°53.937 22.520085 3.750058 31.534379  
2002-05-17 07:32:48 51°18.545 2°53.961 23.480414 3.749958 31.526355  
2002-05-17 07:32:53 51°18.553 2°53.985 23.480414 3.749958 31.526355  
2002-05-17 07:32:58 51°18.561 2°54.009 20.002861 3.749657 31.517747  
2002-05-17 07:33:03 51°18.569 2°54.034 23.185785 3.749357 31.5085  
2002-05-17 07:33:08 51°18.577 2°54.059 22.214738 3.748855 31.497384  
2002-05-17 07:33:13 51°18.586 2°54.083 23.784055 3.748354 31.48563  
2002-05-17 07:33:18 51°18.594 2°54.107 21.681628 3.747953 31.475459  
2002-05-17 07:33:23 51°18.602 2°54.131 21.681628 3.747953 31.475459  
2002-05-17 07:33:27 51°18.609 2°54.15 20.205813 3.747552 31.462085  
2002-05-17 07:33:33 51°18.619 2°54.179 21.712956 3.746951 31.445565  
2002-05-17 07:33:38 51°18.627 2°54.203 23.59843 3.746349 31.428416  
2002-05-17 07:33:43 51°18.636 2°54.228 19.04971 3.745948 31.413791  
2002-05-17 07:33:47 51°18.642 2°54.247 22.457259 3.745648 31.40267  
2002-05-17 07:33:53 51°18.652 2°54.276 22.457259 3.745648 31.40267  
2002-05-17 07:33:58 51°18.66 2°54.3 21.167309 3.745547 31.395341  
2002-05-17 07:34:02 51°18.666 2°54.319 22.176056 3.745046 31.386834  
2002-05-17 07:34:08 51°18.677 2°54.349 22.888624 3.744946 31.383344  
2002-05-17 07:34:13 51°18.685 2°54.372 20.104431 3.744846 31.379216  
2002-05-17 07:34:18 51°18.693 2°54.396 17.897964 3.744745 31.377004  
2002-05-17 07:34:23 51°18.701 2°54.42 17.897964 3.744745 31.377004  
2002-05-17 07:34:28 51°18.71 2°54.445 20.747556 3.744745 31.375089  
2002-05-17 07:34:33 51°18.719 2°54.469 19.531348 3.744645 31.372239  
2002-05-17 07:34:38 51°18.727 2°54.493 20.792745 3.744244 31.36595  
2002-05-17 07:34:42 51°18.734 2°54.512 18.729291 3.744344 31.361778  
2002-05-17 07:34:48 51°18.744 2°54.541 21.712009 3.744044 31.353236  
2002-05-17 07:34:53 51°18.752 2°54.565 21.712009 3.744044 31.353236  
2002-05-17 07:34:58 51°18.761 2°54.589 21.841838 3.743643 31.340577  
2002-05-17 07:35:03 51°18.769 2°54.613 21.101447 3.743141 31.329541  
2002-05-17 07:35:08 51°18.777 2°54.638 17.696335 3.743041 31.32224  
2002-05-17 07:35:13 51°18.786 2°54.662 21.272983 3.742841 31.316556  
2002-05-17 07:35:17 51°18.793 2°54.681 18.351152 3.74254 31.309304  
2002-05-17 07:35:22 51°18.801 2°54.705 18.351152 3.74254 31.309304  
2002-05-17 07:35:28 51°18.811 2°54.734 21.41016 3.74244 31.304555  
2002-05-17 07:35:33 51°18.819 2°54.758 22.093483 3.742339 31.299807  
2002-05-17 07:35:37 51°18.826 2°54.778 18.090483 3.742239 31.294425  
2002-05-17 07:35:42 51°18.835 2°54.802 20.374139 3.741638 31.285656  
2002-05-17 07:35:48 51°18.845 2°54.831 18.573442 3.741638 31.282479  
2002-05-17 07:35:53 51°18.853 2°54.854 18.573442 3.741638 31.282479  
2002-05-17 07:35:58 51°18.862 2°54.878 20.775978 3.741137 31.273375  
2002-05-17 07:36:03 51°18.87 2°54.902 19.384506 3.740635 31.266812  
2002-05-17 07:36:08 51°18.878 2°54.926 20.417957 3.740535 31.262073  
2002-05-17 07:36:12 51°18.884 2°54.945 21.337376 3.739733 31.251449  
2002-05-17 07:36:18 51°18.894 2°54.974 20.94918 3.739132 31.243324  
2002-05-17 07:36:23 51°18.903 2°54.998 20.94918 3.739132 31.243324  
2002-05-17 07:36:28 51°18.912 2°55.022 19.965585 3.738731 31.236429  
2002-05-17 07:36:33 51°18.921 2°55.046 20.201214 3.738631 31.231696  
2002-05-17 07:36:37 51°18.927 2°55.065 18.494518 3.73843 31.2273  
2002-05-17 07:36:42 51°18.936 2°55.089 20.405929 3.73823 31.222271  
2002-05-17 07:36:48 51°18.947 2°55.118 18.163137 3.737528 31.213222  
2002-05-17 07:36:53 51°18.955 2°55.142 18.163137 3.737528 31.213222  
2002-05-17 07:36:58 51°18.964 2°55.166 19.106167 3.737829 31.21285  
2002-05-17 07:37:03 51°18.972 2°55.19 20.143774 3.737729 31.209387  
2002-05-17 07:37:08 51°18.981 2°55.214 21.129487 3.737929 31.208085  
2002-05-17 07:37:12 51°18.988 2°55.233 20.827867 3.73843 31.209574  
2002-05-17 07:37:18 51°18.999 2°55.262 21.398814 3.73853 31.209239  
2002-05-17 07:37:23 51°19.008 2°55.286 21.398814 3.73853 31.209239  
2002-05-17 07:37:28 51°19.017 2°55.31 20.989053 3.738631 31.207639  
2002-05-17 07:37:33 51°19.025 2°55.334 21.243846 3.739332 31.212254  
2002-05-17 07:37:37 51°19.031 2°55.353 20.187453 3.739733 31.216608  
2002-05-17 07:37:43 51°19.041 2°55.382 18.099423 3.740434 31.222488  
2002-05-17 07:37:48 51°19.05 2°55.407 20.700416 3.741036 31.228703  
2002-05-17 07:37:53 51°19.058 2°55.431 20.700416 3.741036 31.228703  
2002-05-17 07:37:58 51°19.067 2°55.456 16.953881 3.741637 31.235552  
2002-05-17 07:38:03 51°19.076 2°55.481 17.399925 3.742439 31.246796  
2002-05-17 07:38:08 51°19.084 2°55.505 20.287225 3.742639 31.252459  
2002-05-17 07:38:12 51°19.091 2°55.525 20.812428 3.742439 31.252499  
2002-05-17 07:38:18 51°19.101 2°55.555 20.706185 3.741938 31.254182  
2002-05-17 07:38:23 51°19.11 2°55.579 20.706185 3.741938 31.254182  
2002-05-17 07:38:28 51°19.118 2°55.604 19.778907 3.741236 31.252102  
2002-05-17 07:38:33 51°19.127 2°55.629 18.775673 3.740435 31.248457  
2002-05-17 07:38:37 51°19.133 2°55.648 19.325004 3.739433 31.244216  
2002-05-17 07:38:42 51°19.141 2°55.673 19.675159 3.738831 31.244334  
2002-05-17 07:38:48 51°19.15 2°55.703 17.785278 3.73823 31.24255  
2002-05-17 07:38:53 51°19.158 2°55.728 17.785278 3.73823 31.24255  
2002-05-17 07:38:58 51°19.165 2°55.753 20.565831 3.737729 31.242966  
2002-05-17 07:39:03 51°19.172 2°55.779 21.294917 3.737028 31.238347  
2002-05-17 07:39:08 51°19.179 2°55.804 20.14761 3.736427 31.235928  
2002-05-17 07:39:13 51°19.186 2°55.829 19.241732 3.735625 31.230376  
2002-05-17 07:39:18 51°19.193 2°55.855 19.762182 3.735124 31.226351  
2002-05-17 07:39:23 51°19.2 2°55.88 19.762182 3.735124 31.226351  
2002-05-17 07:39:28 51°19.207 2°55.905 21.510166 3.735525 31.232616  
2002-05-17 07:39:33 51°19.215 2°55.93 20.303585 3.736326 31.240071  
2002-05-17 07:39:37 51°19.221 2°55.95 17.610209 3.736827 31.242827  
2002-05-17 07:39:42 51°19.228 2°55.975 21.618298 3.73813 31.252403  
2002-05-17 07:39:48 51°19.236 2°56.005 20.542184 3.739834 31.264436  
2002-05-17 07:39:53 51°19.243 2°56.03 20.542184 3.739834 31.264436  
2002-05-17 07:39:57 51°19.249 2°56.051 21.011036 3.742038 31.281126  
2002-05-17 07:40:03 51°19.258 2°56.081 18.474174 3.744243 31.297179  
2002-05-17 07:40:08 51°19.265 2°56.107 19.785808 3.746648 31.316363  
2002-05-17 07:40:13 51°19.272 2°56.132 21.657085 3.749154 31.335842  
2002-05-17 07:40:18 51°19.279 2°56.157 19.81823 3.751358 31.353796  
2002-05-17 07:40:22 51°19.284 2°56.177 19.81823 3.751358 31.353796  
2002-05-17 07:40:28 51°19.293 2°56.207 18.947175 3.752962 31.366795  
2002-05-17 07:40:33 51°19.3 2°56.232 17.790875 3.753764 31.371703  
2002-05-17 07:40:37 51°19.306 2°56.252 24.193425 3.754565 31.377883  
2002-05-17 07:40:42 51°19.313 2°56.277 22.083935 3.755267 31.381858  
2002-05-17 07:40:48 51°19.322 2°56.307 22.713374 3.755267 31.380585  
2002-05-17 07:40:53 51°19.329 2°56.332 22.713374 3.755267 31.380585  
2002-05-17 07:40:58 51°19.337 2°56.357 21.103678 3.755567 31.382744  
2002-05-17 07:41:03 51°19.344 2°56.382 21.791236 3.755768 31.38588  
2002-05-17 07:41:07 51°19.35 2°56.402 22.211208 3.755367 31.382153  
2002-05-17 07:41:13 51°19.358 2°56.432 17.395389 3.755267 31.383768  
2002-05-17 07:41:18 51°19.365 2°56.457 22.445023 3.754866 31.380678  
2002-05-17 07:41:23 51°19.371 2°56.483 22.445023 3.754866 31.380678  
2002-05-17 07:41:28 51°19.378 2°56.508 17.845275 3.754766 31.3772  
2002-05-17 07:41:33 51°19.386 2°56.533 19.801027 3.753763 31.366612  
2002-05-17 07:41:38 51°19.393 2°56.558 21.150551 3.753363 31.360977  
2002-05-17 07:41:43 51°19.4 2°56.583 18.326248 3.752861 31.352504  
2002-05-17 07:41:48 51°19.408 2°56.607 23.297561 3.75216 31.344714  
2002-05-17 07:41:52 51°19.413 2°56.628 23.297561 3.75216 31.344714  
2002-05-17 07:41:58 51°19.422 2°56.657 20.88799 3.751258 31.33252  
2002-05-17 07:42:03 51°19.43 2°56.682 18.825974 3.750256 31.320669  
2002-05-17 07:42:07 51°19.436 2°56.702 21.833321 3.749755 31.314744  
2002-05-17 07:42:13 51°19.444 2°56.733 18.089984 3.748652 31.30387  
2002-05-17 07:42:18 51°19.451 2°56.758 23.298102 3.74775 31.293589  
2002-05-17 07:42:23 51°19.457 2°56.784 23.298102 3.74775 31.293589  
2002-05-17 07:42:28 51°19.463 2°56.809 18.960318 3.746447 31.282757  
2002-05-17 07:42:33 51°19.469 2°56.835 21.506363 3.745646 31.278482  
2002-05-17 07:42:37 51°19.474 2°56.855 19.86568 3.744944 31.2726  
2002-05-17 07:42:43 51°19.482 2°56.886 20.737346 3.743641 31.263035  
2002-05-17 07:42:48 51°19.488 2°56.912 21.114991 3.74274 31.254657  
2002-05-17 07:42:53 51°19.494 2°56.937 21.114991 3.74274 31.254657  
2002-05-17 07:42:58 51°19.5 2°56.963 20.981432 3.742439 31.251865  
2002-05-17 07:43:03 51°19.506 2°56.988 17.767398 3.741537 31.242854  
2002-05-17 07:43:08 51°19.513 2°57.014 21.921788 3.740835 31.235073  
2002-05-17 07:43:13 51°19.519 2°57.04 17.527371 3.739833 31.225766  
2002-05-17 07:43:17 51°19.524 2°57.06 21.500461 3.738631 31.214599  
2002-05-17 07:43:23 51°19.531 2°57.09 21.500461 3.738631 31.214599  
2002-05-17 07:43:28 51°19.538 2°57.116 18.584137 3.737428 31.204065  
2002-05-17 07:43:33 51°19.544 2°57.142 19.692231 3.736326 31.195094  
2002-05-17 07:43:38 51°19.55 2°57.167 21.405995 3.735223 31.186122  
2002-05-17 07:43:43 51°19.556 2°57.193 21.800626 3.734722 31.18147  
2002-05-17 07:43:48 51°19.563 2°57.218 21.993191 3.733319 31.169707  
2002-05-17 07:43:53 51°19.569 2°57.244 21.993191 3.733319 31.169707  
2002-05-17 07:43:58 51°19.575 2°57.269 17.956613 3.732317 31.160402  
2002-05-17 07:44:03 51°19.581 2°57.295 21.10061 3.731716 31.155451  
2002-05-17 07:44:08 51°19.587 2°57.32 18.210853 3.730814 31.146445  
2002-05-17 07:44:13 51°19.594 2°57.346 20.888989 3.729912 31.136178  
2002-05-17 07:44:18 51°19.6 2°57.371 21.659259 3.729311 31.128071  
2002-05-17 07:44:23 51°19.606 2°57.396 21.659259 3.729311 31.128071  
2002-05-17 07:44:27 51°19.611 2°57.417 23.915559 3.728208 31.114055  
2002-05-17 07:44:33 51°19.619 2°57.447 20.147852 3.727607 31.104061  
2002-05-17 07:44:38 51°19.625 2°57.471 22.90933 3.726304 31.086932  
2002-05-17 07:44:43 51°19.631 2°57.497 23.578383 3.725202 31.07104  
2002-05-17 07:44:48 51°19.637 2°57.522 19.564051 3.724099 31.055154  
2002-05-17 07:44:53 51°19.644 2°57.547 19.564051 3.724099 31.055154  
2002-05-17 07:44:58 51°19.65 2°57.572 19.140749 3.722997 31.040531  
2002-05-17 07:45:02 51°19.655 2°57.593 18.613531 3.721594 31.02187  
2002-05-17 07:45:08 51°19.662 2°57.623 19.457986 3.721994 31.020561  
2002-05-17 07:45:12 51°19.667 2°57.643 18.452913 3.721594 31.011825  
2002-05-17 07:45:18 51°19.674 2°57.674 19.529189 3.721193 31.003718  
2002-05-17 07:45:23 51°19.68 2°57.699 19.529189 3.721193 31.003718  
2002-05-17 07:45:28 51°19.686 2°57.724 20.458412 3.719389 30.981992  
2002-05-17 07:45:33 51°19.692 2°57.749 20.494786 3.716282 30.94696  
2002-05-17 07:45:37 51°19.697 2°57.769 20.361419 3.712073 30.900494  
2002-05-17 07:45:42 51°19.704 2°57.794 21.37838 3.706962 30.847585  
2002-05-17 07:45:48 51°19.711 2°57.824 20.366048 3.703354 30.809853  
2002-05-17 07:45:53 51°19.718 2°57.849 20.366048 3.703354 30.809853  
2002-05-17 07:45:58 51°19.724 2°57.874 20.689317 3.699647 30.772454  
2002-05-17 07:46:03 51°19.73 2°57.899 23.055191 3.69634 30.738153  
2002-05-17 07:46:08 51°19.737 2°57.925 20.638088 3.693333 30.709744  
2002-05-17 07:46:13 51°19.744 2°57.95 20.90517 3.691129 30.68627  
2002-05-17 07:46:18 51°19.751 2°57.976 23.481108 3.688323 30.659105  
2002-05-17 07:46:23 51°19.757 2°58.002 23.481108 3.688323 30.659105  
2002-05-17 07:46:28 51°19.764 2°58.028 21.469831 3.686118 30.635643  
2002-05-17 07:46:32 51°19.769 2°58.047 21.274811 3.684615 30.620521  
2002-05-17 07:46:38 51°19.776 2°58.077 21.183864 3.68251 30.599231  
2002-05-17 07:46:43 51°19.783 2°58.102 22.770606 3.681007 30.582262  
2002-05-17 07:46:47 51°19.788 2°58.123 19.217963 3.680206 30.571774  
2002-05-17 07:46:53 51°19.796 2°58.153 19.217963 3.680206 30.571774  
2002-05-17 07:46:58 51°19.802 2°58.178 21.480492 3.678302 30.551113  
2002-05-17 07:47:03 51°19.808 2°58.202 17.947613 3.676698 30.532615  
2002-05-17 07:47:08 51°19.814 2°58.227 23.38266 3.675295 30.515357  
2002-05-17 07:47:13 51°19.82 2°58.251 22.014826 3.674093 30.499338  
2002-05-17 07:47:18 51°19.827 2°58.275 22.758268 3.672088 30.476546  
2002-05-17 07:47:23 51°19.833 2°58.3 22.758268 3.672088 30.476546  
2002-05-17 07:47:28 51°19.839 2°58.324 23.846425 3.669784 30.449148  
2002-05-17 07:47:32 51°19.844 2°58.344 24.483724 3.667278 30.419916  
2002-05-17 07:47:38 51°19.851 2°58.373 24.897951 3.664472 30.384866  
2002-05-17 07:47:43 51°19.856 2°58.397 21.800863 3.662067 30.356591  
2002-05-17 07:47:47 51°19.862 2°58.416 23.476329 3.659261 30.322195  
2002-05-17 07:47:53 51°19.869 2°58.446 23.476329 3.659261 30.322195  
2002-05-17 07:47:58 51°19.875 2°58.47 24.132537 3.656355 30.287511  
2002-05-17 07:48:03 51°19.881 2°58.494 23.898742 3.654051 30.257771  
2002-05-17 07:48:08 51°19.887 2°58.519 23.767206 3.650643 30.216697  
2002-05-17 07:48:13 51°19.893 2°58.543 23.35765 3.647136 30.176556  
2002-05-17 07:48:18 51°19.899 2°58.568 22.784498 3.642827 30.129683  
2002-05-17 07:48:23 51°19.905 2°58.592 22.784498 3.642827 30.129683  
2002-05-17 07:48:28 51°19.911 2°58.617 22.783253 3.639521 30.093857  
2002-05-17 07:48:33 51°19.917 2°58.641 21.300479 3.636715 30.063254  
2002-05-17 07:48:37 51°19.922 2°58.66 22.844823 3.633007 30.025593  
2002-05-17 07:48:43 51°19.93 2°58.689 22.811886 3.629099 29.986108  
2002-05-17 07:48:48 51°19.936 2°58.714 21.881489 3.626093 29.956116  
2002-05-17 07:48:53 51°19.942 2°58.738 21.881489 3.626093 29.956116  
2002-05-17 07:48:58 51°19.948 2°58.763 24.050267 3.62439 29.939285  
2002-05-17 07:49:03 51°19.955 2°58.787 22.650874 3.620883 29.908316  
2002-05-17 07:49:08 51°19.961 2°58.812 22.273623 3.618879 29.889935  
2002-05-17 07:49:13 51°19.967 2°58.836 22.238188 3.616474 29.867879  
2002-05-17 07:49:18 51°19.973 2°58.86 20.519413 3.614169 29.847344  
2002-05-17 07:49:23 51°19.979 2°58.885 20.519413 3.614169 29.847344  
2002-05-17 07:49:28 51°19.986 2°58.909 21.604019 3.612566 29.832643  
2002-05-17 07:49:32 51°19.99 2°58.929 22.926535 3.611063 29.818861  
2002-05-17 07:49:38 51°19.998 2°58.958 23.311893 3.609159 29.801406  
2002-05-17 07:49:43 51°20.005 2°58.982 22.737791 3.607256 29.783952  
2002-05-17 07:49:47 51°20.01 2°59.002 21.032174 3.605552 29.76714  
2002-05-17 07:49:53 51°20.017 2°59.031 21.032174 3.605552 29.76714  
2002-05-17 07:49:58 51°20.024 2°59.055 20.182449 3.603648 29.747299  
2002-05-17 07:50:03 51°20.03 2°59.079 22.143282 3.602045 29.729022  
2002-05-17 07:50:08 51°20.036 2°59.104 23.360159 3.601043 29.716856  
2002-05-17 07:50:13 51°20.042 2°59.128 23.204549 3.598739 29.692165  
2002-05-17 07:50:18 51°20.049 2°59.152 20.362666 3.597536 29.678171  
2002-05-17 07:50:23 51°20.055 2°59.177 20.362666 3.597536 29.678171  
2002-05-17 07:50:28 51°20.061 2°59.201 19.197705 3.596234 29.663263  
2002-05-17 07:50:33 51°20.067 2°59.226 20.992046 3.595131 29.649004  
2002-05-17 07:50:37 51°20.072 2°59.245 23.429336 3.593829 29.633509  
2002-05-17 07:50:43 51°20.079 2°59.274 20.698453 3.592626 29.618936  
2002-05-17 07:50:48 51°20.086 2°59.299 22.863715 3.591223 29.603722  
2002-05-17 07:50:53 51°20.092 2°59.323 22.863715 3.591223 29.603722  
2002-05-17 07:50:57 51°20.097 2°59.343 22.798077 3.58952 29.58576  
2002-05-17 07:51:03 51°20.104 2°59.372 21.638188 3.587817 29.568396  
2002-05-17 07:51:08 51°20.11 2°59.396 22.407913 3.586113 29.54985  
2002-05-17 07:51:13 51°20.116 2°59.42 22.340995 3.584811 29.535566  
2002-05-17 07:51:17 51°20.121 2°59.44 23.550246 3.583007 29.51848  
2002-05-17 07:51:23 51°20.129 2°59.469 23.550246 3.583007 29.51848  
2002-05-17 07:51:28 51°20.135 2°59.494 23.100415 3.580803 29.498915  
2002-05-17 07:51:34 51°20.142 2°59.523 22.114106 3.5795 29.488188  
2002-05-17 07:51:44 51°20.154 2°59.571 23.166745 3.576394 29.462744  
2002-05-17 07:51:48 51°20.159 2°59.591 23.038249 3.575292 29.452667  
2002-05-17 07:51:54 51°20.166 2°59.62 21.080887 3.574491 29.44711  
2002-05-17 07:51:59 51°20.172 2°59.645 21.080887 3.574491 29.44711  
2002-05-17 07:52:04 51°20.178 2°59.669 20.160167 3.573689 29.439781  
2002-05-17 07:52:08 51°20.183 2°59.688 23.160784 3.572387 29.429053  
2002-05-17 07:52:14 51°20.19 2°59.718 20.758766 3.571485 29.42199  
2002-05-17 07:52:19 51°20.196 2°59.742 23.55629 3.571184 29.419241  
2002-05-17 07:52:24 51°20.202 2°59.766 23.405307 3.570583 29.414335  
2002-05-17 07:52:28 51°20.207 2°59.786 23.405307 3.570583 29.414335  
2002-05-17 07:52:34 51°20.214 2°59.815 21.903513 3.570483 29.411649  
2002-05-17 07:52:39 51°20.22 2°59.84 21.623241 3.569882 29.403793  
2002-05-17 07:52:44 51°20.226 2°59.864 22.159219 3.570082 29.402676  
2002-05-17 07:52:49 51°20.232 2°59.889 22.711622 3.56918 29.392665  
2002-05-17 07:52:54 51°20.239 2°59.913 22.055443 3.568679 29.386908  
2002-05-17 07:52:59 51°20.245 2°59.937 22.055443 3.568679 29.386908  
2002-05-17 07:53:04 51°20.251 2°59.962 23.832237 3.567477 29.37592  
2002-05-17 07:53:09 51°20.258 2°59.987 23.983786 3.566776 29.368922  
2002-05-17 07:53:14 51°20.264 3°0.011 22.232189 3.566575 29.366502  
2002-05-17 07:53:18 51°20.269 3°0.031 22.993996 3.565874 29.360682  
2002-05-17 07:53:24 51°20.276 3°0.06 21.901858 3.565473 29.358786  
2002-05-17 07:53:29 51°20.282 3°0.084 21.901858 3.565473 29.358786  
2002-05-17 07:53:34 51°20.288 3°0.109 21.873214 3.564471 29.351985  
2002-05-17 07:53:39 51°20.295 3°0.134 21.092363 3.56367 29.347604  
2002-05-17 07:53:43 51°20.3 3°0.153 21.000504 3.563469 29.347539  
2002-05-17 07:53:49 51°20.307 3°0.183 20.080992 3.562969 29.347671  
2002-05-17 07:53:54 51°20.313 3°0.207 20.346763 3.562668 29.347279  
2002-05-17 07:53:59 51°20.319 3°0.232 20.346763 3.562668 29.347279  
2002-05-17 07:54:04 51°20.325 3°0.256 19.252816 3.562267 29.347149  
2002-05-17 07:54:09 51°20.332 3°0.281 21.527909 3.561967 29.345579  
2002-05-17 07:54:14 51°20.338 3°0.305 21.754535 3.562167 29.348  
2002-05-17 07:54:19 51°20.344 3°0.33 20.843742 3.562067 29.344728  
2002-05-17 07:54:24 51°20.351 3°0.354 20.154514 3.562167 29.344466  
2002-05-17 07:54:28 51°20.356 3°0.374 20.154514 3.562167 29.344466  
2002-05-17 07:54:33 51°20.362 3°0.398 20.451417 3.561666 29.33812  
2002-05-17 07:54:39 51°20.369 3°0.428 19.356334 3.561766 29.337858  
2002-05-17 07:54:44 51°20.376 3°0.452 18.853045 3.561466 29.333345  
2002-05-17 07:54:49 51°20.382 3°0.477 19.42405 3.561265 29.330925  
2002-05-17 07:54:54 51°20.388 3°0.501 19.888501 3.560764 29.326935  
2002-05-17 07:54:59 51°20.395 3°0.526 19.888501 3.560764 29.326935  
2002-05-17 07:55:04 51°20.401 3°0.55 21.267578 3.560464 29.323599  
2002-05-17 07:55:09 51°20.408 3°0.574 21.234899 3.560063 29.319348  
2002-05-17 07:55:14 51°20.414 3°0.599 21.137053 3.559762 29.316013  
2002-05-17 07:55:19 51°20.42 3°0.623 19.686744 3.559261 29.311435  
2002-05-17 07:55:24 51°20.426 3°0.648 20.217472 3.558961 29.308688  
2002-05-17 07:55:29 51°20.432 3°0.672 20.217472 3.558961 29.308688  
2002-05-17 07:55:34 51°20.438 3°0.697 20.922027 3.558059 29.301036  
2002-05-17 07:55:39 51°20.444 3°0.721 21.725279 3.557358 29.295214  
2002-05-17 07:55:44 51°20.45 3°0.746 20.550415 3.556957 29.291552  
2002-05-17 07:55:49 51°20.456 3°0.77 21.138965 3.556256 29.285143  
2002-05-17 07:55:54 51°20.462 3°0.795 21.917889 3.555755 29.279978  
2002-05-17 07:55:59 51°20.468 3°0.819 21.917889 3.555755 29.279978  
2002-05-17 07:56:04 51°20.474 3°0.843 19.853719 3.555053 29.274744  
2002-05-17 07:56:09 51°20.48 3°0.868 19.624529 3.554352 29.268336  
2002-05-17 07:56:14 51°20.487 3°0.892 19.71974 3.553951 29.2635  
2002-05-17 07:56:19 51°20.493 3°0.917 19.752802 3.55315 29.256177  
2002-05-17 07:56:24 51°20.499 3°0.941 19.420052 3.552548 29.250097  
2002-05-17 07:56:29 51°20.505 3°0.965 19.420052 3.552548 29.250097  
2002-05-17 07:56:34 51°20.512 3°0.99 19.954654 3.552148 29.245849  
2002-05-17 07:56:39 51°20.518 3°1.014 19.353924 3.551547 29.241531  
2002-05-17 07:56:44 51°20.524 3°1.039 20.910523 3.550945 29.237212  
2002-05-17 07:56:48 51°20.529 3°1.058 20.086448 3.550344 29.23172  
2002-05-17 07:56:53 51°20.535 3°1.083 20.394744 3.549843 29.22773  
2002-05-17 07:56:59 51°20.542 3°1.112 20.394744 3.549843 29.22773  
2002-05-17 07:57:04 51°20.547 3°1.137 22.011994 3.549643 29.225899  
2002-05-17 07:57:09 51°20.554 3°1.161 20.082811 3.549242 29.221066  
2002-05-17 07:57:14 51°20.559 3°1.186 18.508863 3.548841 29.217405  
2002-05-17 07:57:19 51°20.566 3°1.21 20.079699 3.548441 29.213744  
2002-05-17 07:57:24 51°20.572 3°1.235 19.580579 3.54804 29.210083  
2002-05-17 07:57:29 51°20.578 3°1.259 19.580579 3.54804 29.210083  
2002-05-17 07:57:34 51°20.584 3°1.284 19.515092 3.547639 29.207008  
2002-05-17 07:57:39 51°20.591 3°1.308 18.6663 3.547138 29.203018  
2002-05-17 07:57:44 51°20.597 3°1.332 18.906784 3.546637 29.197856  
2002-05-17 07:57:49 51°20.603 3°1.356 18.775549 3.546136 29.195624  
2002-05-17 07:57:54 51°20.61 3°1.381 18.907976 3.545635 29.192805  
2002-05-17 07:57:59 51°20.616 3°1.405 18.907976 3.545635 29.192805  
2002-05-17 07:58:04 51°20.622 3°1.429 18.402424 3.545335 29.190645  
2002-05-17 07:58:09 51°20.629 3°1.454 19.60797 3.544934 29.188155  
2002-05-17 07:58:14 51°20.635 3°1.478 20.29879 3.544333 29.185592  
2002-05-17 07:58:19 51°20.641 3°1.503 18.773243 3.543932 29.181345  
2002-05-17 07:58:24 51°20.647 3°1.527 19.895958 3.543431 29.177354  
2002-05-17 07:58:29 51°20.652 3°1.552 19.895958 3.543431 29.177354  
2002-05-17 07:58:34 51°20.658 3°1.577 19.069723 3.543131 29.173437  
2002-05-17 07:58:39 51°20.664 3°1.601 19.725996 3.542429 29.166445  
2002-05-17 07:58:43 51°20.669 3°1.621 18.918826 3.542129 29.16487  
2002-05-17 07:58:48 51°20.674 3°1.646 21.397426 3.541127 29.158059  
2002-05-17 07:58:53 51°20.68 3°1.67 19.582411 3.540726 29.157324  
2002-05-17 07:58:59 51°20.687 3°1.7 19.582411 3.540726 29.157324  
2002-05-17 07:59:04 51°20.694 3°1.724 19.250485 3.540025 29.154428  
2002-05-17 07:59:08 51°20.698 3°1.744 19.149432 3.539424 29.151862  
2002-05-17 07:59:14 51°20.706 3°1.773 22.75169 3.538723 29.147795  
2002-05-17 07:59:19 51°20.712 3°1.798 21.369054 3.538422 29.147389  
2002-05-17 07:59:24 51°20.718 3°1.822 20.457045 3.538021 29.144897  
2002-05-17 07:59:29 51°20.724 3°1.846 20.457045 3.538021 29.144897  
2002-05-17 07:59:34 51°20.73 3°1.871 19.027885 3.537621 29.143576  
2002-05-17 07:59:39 51°20.736 3°1.895 21.668073 3.53732 29.140829  
2002-05-17 07:59:44 51°20.742 3°1.92 21.634353 3.53712 29.138998  
2002-05-17 07:59:49 51°20.749 3°1.944 19.526378 3.53732 29.139659  
2002-05-17 07:59:54 51°20.755 3°1.968 20.788023 3.53762 29.139479  
2002-05-17 07:59:59 51°20.761 3°1.993 20.788023 3.53762 29.139479  
2002-05-17 08:00:04 51°20.767 3°2.018 20.357554 3.537721 29.13981  
2002-05-17 08:00:08 51°20.772 3°2.037 20.421537 3.537821 29.13897  
2002-05-17 08:00:14 51°20.778 3°2.067 18.517833 3.53752 29.135053  
2002-05-17 08:00:19 51°20.784 3°2.091 19.793154 3.53722 29.132892  
2002-05-17 08:00:24 51°20.79 3°2.116 20.41832 3.536819 29.12806  
2002-05-17 08:00:28 51°20.795 3°2.135 20.41832 3.536819 29.12806  
2002-05-17 08:00:34 51°20.803 3°2.164 23.352786 3.536719 29.127145  
2002-05-17 08:00:39 51°20.809 3°2.188 19.522222 3.536518 29.125899  
2002-05-17 08:00:44 51°20.816 3°2.213 20.28388 3.536218 29.124907  
2002-05-17 08:00:49 51°20.822 3°2.237 19.556925 3.535617 29.119999  
2002-05-17 08:00:54 51°20.829 3°2.261 19.824437 3.535416 29.119922  
2002-05-17 08:00:59 51°20.835 3°2.285 19.824437 3.535416 29.119922  
2002-05-17 08:01:04 51°20.841 3°2.31 19.293661 3.535116 29.118346  
2002-05-17 08:01:09 51°20.846 3°2.334 22.495633 3.534715 29.115853  
2002-05-17 08:01:14 51°20.852 3°2.359 21.043777 3.534414 29.113106  
2002-05-17 08:01:19 51°20.858 3°2.384 21.305326 3.534214 29.111275  
2002-05-17 08:01:24 51°20.864 3°2.408 19.421806 3.534014 29.10769  
2002-05-17 08:01:29 51°20.871 3°2.432 19.421806 3.534014 29.10769  
2002-05-17 08:01:34 51°20.877 3°2.456 20.676293 3.534014 29.107106  
2002-05-17 08:01:39 51°20.883 3°2.481 19.11174 3.534014 29.104768  
2002-05-17 08:01:44 51°20.889 3°2.505 19.674183 3.533813 29.103522  
2002-05-17 08:01:49 51°20.896 3°2.529 20.866329 3.533813 29.103522  
2002-05-17 08:01:54 51°20.902 3°2.553 20.537767 3.533713 29.102606  
2002-05-17 08:01:59 51°20.908 3°2.578 20.537767 3.533713 29.102606  
2002-05-17 08:02:04 51°20.913 3°2.602 19.749066 3.533312 29.101282  
2002-05-17 08:02:08 51°20.918 3°2.622 19.241487 3.533212 29.103289  
2002-05-17 08:02:14 51°20.924 3°2.652 19.608865 3.532811 29.101381  
2002-05-17 08:02:19 51°20.93 3°2.676 20.003428 3.532511 29.102142  
2002-05-17 08:02:24 51°20.935 3°2.7 20.990729 3.532311 29.100895  
2002-05-17 08:02:28 51°20.94 3°2.72 20.990729 3.532311 29.100895  
2002-05-17 08:02:34 51°20.947 3°2.749 19.703203 3.53221 29.099979  
2002-05-17 08:02:39 51°20.952 3°2.774 18.797905 3.53211 29.099648  
2002-05-17 08:02:44 51°20.958 3°2.798 20.432558 3.53191 29.098402  
2002-05-17 08:02:48 51°20.963 3°2.817 20.658376 3.53221 29.100564  
2002-05-17 08:02:54 51°20.97 3°2.846 20.665471 3.53181 29.098071  
2002-05-17 08:02:59 51°20.977 3°2.87 20.665471 3.53181 29.098071  
2002-05-17 08:03:04 51°20.982 3°2.895 18.869619 3.53171 29.099493  
2002-05-17 08:03:09 51°20.989 3°2.919 22.355402 3.531309 29.098169  
2002-05-17 08:03:14 51°20.994 3°2.943 20.633757 3.531309 29.099923  
2002-05-17 08:03:19 51°21.001 3°2.967 20.730538 3.531108 29.098092  
2002-05-17 08:03:23 51°21.006 3°2.987 21.190589 3.531209 29.098423  
2002-05-17 08:03:29 51°21.013 3°3.016 21.190589 3.531209 29.098423  
2002-05-17 08:03:33 51°21.018 3°3.036 21.609913 3.531008 29.096006  
2002-05-17 08:03:39 51°21.025 3°3.065 22.259083 3.531108 29.096337  
2002-05-17 08:03:44 51°21.03 3°3.089 20.395307 3.531309 29.097584  
2002-05-17 08:03:49 51°21.036 3°3.114 19.701375 3.531209 29.096084  
2002-05-17 08:03:54 51°21.042 3°3.138 21.083159 3.531309 29.097  
2002-05-17 08:03:59 51°21.048 3°3.162 21.083159 3.531309 29.097  
2002-05-17 08:04:04 51°21.054 3°3.187 21.047126 3.531209 29.096084  
2002-05-17 08:04:08 51°21.059 3°3.206 21.018136 3.531309 29.097584  
2002-05-17 08:04:14 51°21.066 3°3.235 19.673004 3.531209 29.097253  
2002-05-17 08:04:19 51°21.073 3°3.26 19.264798 3.531209 29.099008  
2002-05-17 08:04:24 51°21.079 3°3.284 20.988694 3.531008 29.098345  
2002-05-17 08:04:29 51°21.085 3°3.308 20.988694 3.531008 29.098345  
2002-05-17 08:04:34 51°21.091 3°3.332 21.442718 3.530708 29.096767  
2002-05-17 08:04:39 51°21.098 3°3.356 19.943599 3.530808 29.097098  
2002-05-17 08:04:44 51°21.104 3°3.38 22.094386 3.530507 29.094935  
2002-05-17 08:04:49 51°21.111 3°3.404 20.772416 3.530908 29.096845  
2002-05-17 08:04:54 51°21.118 3°3.428 20.381585 3.531008 29.096591  
2002-05-17 08:04:59 51°21.125 3°3.452 20.381585 3.531008 29.096591  
2002-05-17 08:05:04 51°21.131 3°3.476 20.614305 3.531008 29.096006  
2002-05-17 08:05:09 51°21.138 3°3.5 21.72591 3.531108 29.094583  
2002-05-17 08:05:14 51°21.145 3°3.523 20.551861 3.531309 29.094661  
2002-05-17 08:05:19 51°21.152 3°3.547 19.654749 3.531509 29.094739  
2002-05-17 08:05:24 51°21.159 3°3.571 19.657473 3.531709 29.093648  
2002-05-17 08:05:29 51°21.165 3°3.595 19.657473 3.531709 29.093648  
2002-05-17 08:05:34 51°21.172 3°3.619 19.856274 3.53201 29.095225  
2002-05-17 08:05:39 51°21.179 3°3.643 19.489215 3.53211 29.093803  
2002-05-17 08:05:44 51°21.186 3°3.667 20.11752 3.53231 29.093297  
2002-05-17 08:05:48 51°21.191 3°3.686 20.204683 3.532511 29.094543  
2002-05-17 08:05:54 51°21.199 3°3.715 20.307936 3.532711 29.095206  
2002-05-17 08:05:59 51°21.205 3°3.739 20.307936 3.532711 29.095206  
2002-05-17 08:06:04 51°21.212 3°3.763 18.631524 3.532611 29.094874  
2002-05-17 08:06:09 51°21.218 3°3.787 18.563695 3.532711 29.096374  
2002-05-17 08:06:14 51°21.225 3°3.811 20.074282 3.532711 29.096959  
2002-05-17 08:06:19 51°21.232 3°3.836 20.30709 3.532411 29.09655  
2002-05-17 08:06:24 51°21.238 3°3.86 19.735907 3.53201 29.096394  
2002-05-17 08:06:29 51°21.245 3°3.884 19.735907 3.53201 29.096394  
2002-05-17 08:06:34 51°21.251 3°3.908 21.967574 3.53181 29.097486  
2002-05-17 08:06:38 51°21.257 3°3.927 21.283911 3.53171 29.098324  
2002-05-17 08:06:43 51°21.263 3°3.951 20.922386 3.53191 29.10074  
2002-05-17 08:06:48 51°21.27 3°3.975 21.181954 3.531609 29.098578  
2002-05-17 08:06:54 51°21.277 3°4.004 20.605519 3.53171 29.099493  
2002-05-17 08:06:59 51°21.284 3°4.028 20.605519 3.53171 29.099493  
2002-05-17 08:07:04 51°21.29 3°4.053 21.092283 3.53171 29.100078  
2002-05-17 08:07:09 51°21.296 3°4.077 21.45255 3.531609 29.099162  
2002-05-17 08:07:14 51°21.303 3°4.101 19.673208 3.531609 29.100917  
2002-05-17 08:07:19 51°21.309 3°4.125 20.27461 3.53171 29.102417  
2002-05-17 08:07:24 51°21.315 3°4.149 19.344898 3.53191 29.103664  
2002-05-17 08:07:29 51°21.322 3°4.173 19.344898 3.53191 29.103664  
2002-05-17 08:07:34 51°21.328 3°4.197 19.84277 3.53221 29.105242  
2002-05-17 08:07:39 51°21.335 3°4.221 19.934122 3.532411 29.105319  
2002-05-17 08:07:44 51°21.341 3°4.245 20.13291 3.532711 29.106897  
2002-05-17 08:07:49 51°21.348 3°4.269 21.050595 3.533012 29.108474  
2002-05-17 08:07:54 51°21.354 3°4.293 21.467216 3.532812 29.106643  
2002-05-17 08:07:59 51°21.361 3°4.317 21.467216 3.532812 29.106643  
2002-05-17 08:08:03 51°21.366 3°4.336 19.856355 3.532912 29.109313  
2002-05-17 08:08:09 51°21.374 3°4.365 22.907932 3.532611 29.107151  
2002-05-17 08:08:14 51°21.38 3°4.389 19.288511 3.532611 29.10949  
2002-05-17 08:08:18 51°21.385 3°4.408 20.774457 3.532211 29.107582  
2002-05-17 08:08:23 51°21.392 3°4.432 19.681541 3.531609 29.105011  
2002-05-17 08:08:28 51°21.398 3°4.456 19.681541 3.531609 29.105011  
2002-05-17 08:08:34 51°21.406 3°4.485 20.118571 3.531409 29.106104  
2002-05-17 08:08:39 51°21.413 3°4.509 18.706171 3.531008 29.105365  
2002-05-17 08:08:43 51°21.418 3°4.528 20.276505 3.531109 29.108037  
2002-05-17 08:08:49 51°21.425 3°4.557 22.261121 3.530608 29.105211  
2002-05-17 08:08:54 51°21.432 3°4.581 18.705923 3.530608 29.106382  
2002-05-17 08:08:58 51°21.437 3°4.6 18.705923 3.530608 29.106382  
2002-05-17 08:09:04 51°21.444 3°4.629 19.345838 3.530608 29.107552  
2002-05-17 08:09:08 51°21.45 3°4.649 18.367971 3.530908 29.111472  
2002-05-17 08:09:14 51°21.457 3°4.678 21.416387 3.530908 29.112643  
2002-05-17 08:09:19 51°21.464 3°4.701 21.539788 3.530908 29.113228  
2002-05-17 08:09:24 51°21.471 3°4.725 20.861053 3.531209 29.116563  
2002-05-17 08:09:29 51°21.478 3°4.749 20.861053 3.531209 29.116563  
2002-05-17 08:09:34 51°21.485 3°4.773 21.604573 3.531409 29.118396  
2002-05-17 08:09:39 51°21.492 3°4.797 18.782508 3.53161 29.120814  
2002-05-17 08:09:44 51°21.499 3°4.82 20.065349 3.53201 29.125066  
2002-05-17 08:09:49 51°21.506 3°4.844 18.116677 3.532311 29.128987  
2002-05-17 08:09:53 51°21.511 3°4.863 19.929059 3.532511 29.133164  
2002-05-17 08:09:59 51°21.519 3°4.892 19.929059 3.532511 29.133164  
2002-05-17 08:10:04 51°21.525 3°4.916 20.843822 3.532912 29.138589  
2002-05-17 08:10:08 51°21.53 3°4.935 22.678624 3.533313 29.144015  
2002-05-17 08:10:14 51°21.537 3°4.963 20.307614 3.533513 29.146435  
2002-05-17 08:10:19 51°21.544 3°4.987 20.414377 3.533914 29.151862  
2002-05-17 08:10:23 51°21.549 3°5.006 20.569042 3.534315 29.156703  
2002-05-17 08:10:28 51°21.556 3°5.029 20.569042 3.534315 29.156703  
2002-05-17 08:10:34 51°21.564 3°5.058 21.293248 3.534515 29.160297  
2002-05-17 08:10:39 51°21.57 3°5.082 20.006867 3.534916 29.16866  
2002-05-17 08:10:44 51°21.577 3°5.106 18.80408 3.534916 29.172183  
2002-05-17 08:10:49 51°21.583 3°5.13 21.156522 3.535016 29.177799  
2002-05-17 08:10:54 51°21.59 3°5.153 19.27314 3.535217 29.181984  
2002-05-17 08:10:59 51°21.596 3°5.177 19.27314 3.535217 29.181984  
2002-05-17 08:11:04 51°21.602 3°5.201 19.233592 3.535518 29.186499  
2002-05-17 08:11:09 51°21.609 3°5.225 20.387138 3.536018 29.191087  
2002-05-17 08:11:14 51°21.615 3°5.249 20.671083 3.536119 29.193181  
2002-05-17 08:11:18 51°21.621 3°5.268 20.564988 3.53662 29.198357  
2002-05-17 08:11:24 51°21.629 3°5.296 20.984863 3.53682 29.20078  
2002-05-17 08:11:29 51°21.635 3°5.32 20.984863 3.53682 29.20078  
2002-05-17 08:11:34 51°21.642 3°5.344 20.485664 3.537121 29.20471  
2002-05-17 08:11:39 51°21.648 3°5.368 19.781789 3.537221 29.208569  
2002-05-17 08:11:44 51°21.655 3°5.391 18.06561 3.537021 29.213205  
2002-05-17 08:11:49 51°21.661 3°5.415 19.688735 3.53682 29.217255  
2002-05-17 08:11:54 51°21.668 3°5.439 20.21844 3.53662 29.220719  
2002-05-17 08:11:59 51°21.675 3°5.463 20.21844 3.53662 29.220719  
2002-05-17 08:12:04 51°21.681 3°5.487 20.871365 3.536119 29.223784  
2002-05-17 08:12:09 51°21.688 3°5.51 19.061645 3.535819 29.226921  
2002-05-17 08:12:14 51°21.695 3°5.534 19.766566 3.535618 29.229209  
2002-05-17 08:12:19 51°21.702 3°5.558 20.727214 3.535218 29.228481  
2002-05-17 08:12:24 51°21.709 3°5.582 19.433596 3.535318 29.2294  
2002-05-17 08:12:28 51°21.714 3°5.601 19.433596 3.535318 29.2294  
2002-05-17 08:12:34 51°21.72 3°5.629 20.652964 3.535318 29.22881  
2002-05-17 08:12:39 51°21.727 3°5.653 19.086082 3.535418 29.227961  
2002-05-17 08:12:44 51°21.734 3°5.677 20.553145 3.535618 29.226851  
2002-05-17 08:12:49 51°21.741 3°5.701 18.569849 3.536019 29.228758  
2002-05-17 08:12:54 51°21.748 3°5.725 19.144148 3.536219 29.229417  
2002-05-17 08:12:59 51°21.756 3°5.75 19.144148 3.536219 29.229417  
2002-05-17 08:13:04 51°21.763 3°5.774 20.605399 3.536119 29.228498  
2002-05-17 08:13:09 51°21.77 3°5.798 19.154142 3.53632 29.232694  
2002-05-17 08:13:13 51°21.775 3°5.817 20.556638 3.53662 29.237809  
2002-05-17 08:13:19 51°21.783 3°5.845 19.400832 3.53652 29.241608  
2002-05-17 08:13:24 51°21.789 3°5.868 20.888909 3.53622 29.24121  
2002-05-17 08:13:29 51°21.796 3°5.891 20.888909 3.53622 29.24121  
2002-05-17 08:13:34 51°21.802 3°5.914 19.971415 3.53622 29.24298  
2002-05-17 08:13:39 51°21.808 3°5.937 20.661863 3.53632 29.24272  
2002-05-17 08:13:44 51°21.814 3°5.96 19.771641 3.53642 29.241279  
2002-05-17 08:13:49 51°21.82 3°5.983 18.669682 3.53632 29.236821  
2002-05-17 08:13:54 51°21.827 3°6.006 18.157819 3.536119 29.230856  
2002-05-17 08:13:58 51°21.832 3°6.025 18.157819 3.536119 29.230856  
2002-05-17 08:14:04 51°21.839 3°6.053 18.87332 3.535718 29.224823  
2002-05-17 08:14:08 51°21.844 3°6.072 18.295199 3.535318 29.21997  
2002-05-17 08:14:14 51°21.852 3°6.1 18.965 3.534817 29.214787  
2002-05-17 08:14:19 51°21.858 3°6.123 18.826509 3.534115 29.20659  
2002-05-17 08:14:24 51°21.865 3°6.147 20.454794 3.532913 29.193801  
2002-05-17 08:14:28 51°21.87 3°6.166 20.454794 3.532913 29.193801  
2002-05-17 08:14:34 51°21.878 3°6.193 18.242438 3.531811 29.182521  
2002-05-17 08:14:39 51°21.885 3°6.217 19.353353 3.530709 29.172419  
2002-05-17 08:14:44 51°21.891 3°6.24 19.5166 3.529406 29.161657  
2002-05-17 08:14:49 51°21.898 3°6.263 21.354765 3.528605 29.156074  
2002-05-17 08:14:54 51°21.904 3°6.287 20.176677 3.527603 29.150416  
2002-05-17 08:14:59 51°21.911 3°6.31 20.176677 3.527603 29.150416  
2002-05-17 08:15:04 51°21.917 3°6.334 21.324708 3.526501 29.143252  
2002-05-17 08:15:08 51°21.922 3°6.353 20.286097 3.5259 29.140092  
2002-05-17 08:15:14 51°21.93 3°6.381 19.799038 3.525099 29.135682  
2002-05-17 08:15:19 51°21.936 3°6.405 21.503511 3.524598 29.13344  
2002-05-17 08:15:24 51°21.943 3°6.428 18.997558 3.524097 29.131197  
2002-05-17 08:15:28 51°21.949 3°6.447 18.997558 3.524097 29.131197  
2002-05-17 08:15:34 51°21.957 3°6.474 19.133539 3.523796 29.130204  
2002-05-17 08:15:39 51°21.963 3°6.498 19.362418 3.523395 29.128292  
2002-05-17 08:15:42 51°21.967 3°6.512 18.928729 3.522794 29.126306  
2002-05-17 08:15:49 51°21.977 3°6.545 19.189355 3.522594 29.126231  
2002-05-17 08:15:54 51°21.983 3°6.569 20.088348 3.522394 29.126745  
2002-05-17 08:15:59 51°21.99 3°6.593 20.088348 3.522394 29.126745  
2002-05-17 08:16:03 51°21.995 3°6.612 20.132668 3.522394 29.12792  
2002-05-17 08:16:09 51°22.003 3°6.64 21.202883 3.521993 29.127184  
2002-05-17 08:16:14 51°22.01 3°6.663 19.324106 3.521993 29.127772  
2002-05-17 08:16:19 51°22.017 3°6.687 19.01574 3.521492 29.12494  
2002-05-17 08:16:24 51°22.023 3°6.711 21.335152 3.521793 29.128874  
2002-05-17 08:16:29 51°22.03 3°6.735 21.335152 3.521793 29.128874  
2002-05-17 08:16:34 51°22.037 3°6.759 20.909964 3.521492 29.126704  
2002-05-17 08:16:39 51°22.044 3°6.782 19.690077 3.521492 29.12788  
2002-05-17 08:16:44 51°22.05 3°6.806 19.293866 3.521793 29.131226  
2002-05-17 08:16:49 51°22.057 3°6.83 20.689397 3.521793 29.131815  
2002-05-17 08:16:54 51°22.063 3°6.854 19.635268 3.521893 29.13391  
2002-05-17 08:16:59 51°22.07 3°6.878 19.635268 3.521893 29.13391  
2002-05-17 08:17:04 51°22.077 3°6.901 20.151728 3.521893 29.133322  
2002-05-17 08:17:08 51°22.082 3°6.92 19.942424 3.521693 29.130895  
2002-05-17 08:17:14 51°22.09 3°6.949 19.678899 3.521492 29.128469  
2002-05-17 08:17:19 51°22.097 3°6.973 19.149637 3.521292 29.124866  
2002-05-17 08:17:24 51°22.103 3°6.998 18.881667 3.520991 29.120344  
2002-05-17 08:17:28 51°22.108 3°7.017 18.881667 3.520991 29.120344  
2002-05-17 08:17:34 51°22.115 3°7.047 20.450452 3.520791 29.116155  
2002-05-17 08:17:39 51°22.12 3°7.071 20.255059 3.52049 29.111047  
2002-05-17 08:17:44 51°22.125 3°7.095 20.191408 3.52029 29.106859  
2002-05-17 08:17:48 51°22.129 3°7.115 19.157664 3.519889 29.100247  
2002-05-17 08:17:54 51°22.136 3°7.145 20.552302 3.519789 29.095218  
2002-05-17 08:17:59 51°22.141 3°7.169 20.552302 3.519789 29.095218  
2002-05-17 08:18:04 51°22.146 3°7.194 20.090853 3.519588 29.091033  
2002-05-17 08:18:08 51°22.151 3°7.214 20.290207 3.519488 29.08718  
2002-05-17 08:18:14 51°22.157 3°7.243 19.056067 3.519288 29.082997  
2002-05-17 08:18:19 51°22.163 3°7.268 19.925737 3.519187 29.080319  
2002-05-17 08:18:24 51°22.168 3°7.293 18.484802 3.519187 29.080319  
2002-05-17 08:18:29 51°22.173 3°7.317 18.484802 3.519187 29.080319  
2002-05-17 08:18:34 51°22.179 3°7.342 20.155685 3.518887 29.076391  
2002-05-17 08:18:39 51°22.184 3°7.366 22.088532 3.518787 29.075473  
2002-05-17 08:18:44 51°22.189 3°7.39 19.161309 3.518687 29.074554  
2002-05-17 08:18:49 51°22.194 3°7.415 20.680782 3.518586 29.074222  
2002-05-17 08:18:54 51°22.2 3°7.44 20.735264 3.518186 29.069963  
2002-05-17 08:18:59 51°22.205 3°7.465 20.735264 3.518186 29.069963  
2002-05-17 08:19:04 51°22.21 3°7.489 19.267047 3.517985 29.06754  
2002-05-17 08:19:09 51°22.215 3°7.514 18.998338 3.517685 29.063027  
2002-05-17 08:19:14 51°22.22 3°7.539 19.19967 3.517384 29.059687  
2002-05-17 08:19:19 51°22.225 3°7.563 19.534036 3.517184 29.057265  
2002-05-17 08:19:24 51°22.231 3°7.587 20.723289 3.517083 29.055175  
2002-05-17 08:19:29 51°22.236 3°7.612 20.723289 3.517083 29.055175  
2002-05-17 08:19:34 51°22.242 3°7.636 20.12568 3.516983 29.053085  
2002-05-17 08:19:39 51°22.247 3°7.66 20.087418 3.516883 29.051581  
2002-05-17 08:19:44 51°22.252 3°7.685 20.815148 3.516883 29.050995  
2002-05-17 08:19:49 51°22.257 3°7.709 19.629695 3.516883 29.051581  
2002-05-17 08:19:54 51°22.262 3°7.734 19.769084 3.516883 29.053339  
2002-05-17 08:19:59 51°22.267 3°7.758 19.769084 3.516883 29.053339  
2002-05-17 08:20:04 51°22.272 3°7.782 20.101723 3.517184 29.056093  
2002-05-17 08:20:09 51°22.277 3°7.806 19.179203 3.517484 29.060605  
2002-05-17 08:20:14 51°22.282 3°7.831 19.484649 3.517484 29.062363  
2002-05-17 08:20:19 51°22.287 3°7.854 22.044514 3.517885 29.066036  
2002-05-17 08:20:24 51°22.293 3°7.879 20.810828 3.518186 29.067618  
2002-05-17 08:20:29 51°22.299 3°7.903 20.810828 3.518186 29.067618  
2002-05-17 08:20:34 51°22.304 3°7.928 19.491619 3.518286 29.065605  
2002-05-17 08:20:39 51°22.31 3°7.952 19.057502 3.518586 29.064843  
2002-05-17 08:20:44 51°22.314 3°7.976 19.860085 3.518686 29.062832  
2002-05-17 08:20:48 51°22.318 3°7.995 18.589257 3.518786 29.060235  
2002-05-17 08:20:54 51°22.325 3°8.024 19.330765 3.518586 29.054885  
2002-05-17 08:20:59 51°22.33 3°8.048 19.330765 3.518586 29.054885  
2002-05-17 08:21:04 51°22.335 3°8.072 19.298566 3.518486 29.051626  
2002-05-17 08:21:08 51°22.338 3°8.091 20.328843 3.518285 29.047449  
2002-05-17 08:21:13 51°22.343 3°8.116 20.099501 3.518285 29.045693  
2002-05-17 08:21:19 51°22.349 3°8.145 20.400578 3.518085 29.042103  
2002-05-17 08:21:24 51°22.354 3°8.169 19.441469 3.518085 29.041518  
2002-05-17 08:21:28 51°22.358 3°8.188 19.441469 3.518085 29.041518  
2002-05-17 08:21:34 51°22.365 3°8.217 19.838877 3.518085 29.038593  
2002-05-17 08:21:39 51°22.37 3°8.242 21.241182 3.517985 29.038261  
2002-05-17 08:21:44 51°22.376 3°8.265 19.947891 3.517784 29.035256  
2002-05-17 08:21:49 51°22.381 3°8.289 20.58008 3.517684 29.03317  
2002-05-17 08:21:54 51°22.386 3°8.313 19.760436 3.517584 29.030498  
2002-05-17 08:21:59 51°22.392 3°8.337 19.760436 3.517584 29.030498  
2002-05-17 08:22:04 51°22.397 3°8.361 19.028255 3.517684 29.029077  
2002-05-17 08:22:09 51°22.402 3°8.385 21.14418 3.518085 29.030406  
2002-05-17 08:22:14 51°22.407 3°8.409 19.287285 3.518586 29.033822  
2002-05-17 08:22:18 51°22.411 3°8.428 20.835665 3.519187 29.035816  
2002-05-17 08:22:24 51°22.417 3°8.457 21.223128 3.519788 29.037225  
2002-05-17 08:22:29 51°22.422 3°8.481 21.223128 3.519788 29.037225  
2002-05-17 08:22:34 51°22.427 3°8.504 18.552418 3.520689 29.041969  
2002-05-17 08:22:38 51°22.431 3°8.524 19.486728 3.521591 29.047881  
2002-05-17 08:22:44 51°22.437 3°8.552 20.177807 3.522292 29.053713  
2002-05-17 08:22:49 51°22.442 3°8.576 18.952391 3.523094 29.063971  
2002-05-17 08:22:54 51°22.448 3°8.6 19.926426 3.524196 29.078739  
2002-05-17 08:22:59 51°22.453 3°8.624 19.926426 3.524196 29.078739  
2002-05-17 08:23:04 51°22.458 3°8.648 19.126041 3.524898 29.090429  
2002-05-17 08:23:08 51°22.462 3°8.667 18.756934 3.525399 29.101461  
2002-05-17 08:23:14 51°22.469 3°8.695 20.002699 3.5259 29.111911  
2002-05-17 08:23:19 51°22.475 3°8.718 19.314586 3.526 29.116935  
2002-05-17 08:23:24 51°22.48 3°8.742 20.651119 3.5263 29.120275